sensor_id;sensor_type;location;lat;lon;timestamp;pressure;altitude;pressure_sealevel;temperature;humidity
67545;BME280;54380;47.770;11.150;2024-02-16T00:02:06;94752.91;;;5.94;57.18
67545;BME280;54380;47.770;11.150;2024-02-16T00:04:32;94755.47;;;5.82;57.32
67545;BME280;54380;47.770;11.150;2024-02-16T00:07:00;94752.81;;;5.70;57.78
67545;BME280;54380;47.770;11.150;2024-02-16T00:09:27;94745.41;;;5.67;57.53
67545;BME280;54380;47.770;11.150;2024-02-16T00:11:54;94743.38;;;5.69;58.38
67545;BME280;54380;47.770;11.150;2024-02-16T00:14:21;94737.88;;;5.71;58.24
67545;BME280;54380;47.770;11.150;2024-02-16T00:16:48;94738.56;;;5.66;57.81
67545;BME280;54380;47.770;11.150;2024-02-16T00:19:16;94742.44;;;5.64;58.34
67545;BME280;54380;47.770;11.150;2024-02-16T00:21:43;94739.00;;;5.63;58.49
67545;BME280;54380;47.770;11.150;2024-02-16T00:24:10;94741.28;;;5.60;58.67
67545;BME280;54380;47.770;11.150;2024-02-16T00:26:37;94740.22;;;5.61;58.62
67545;BME280;54380;47.770;11.150;2024-02-16T00:29:06;94739.56;;;5.65;58.04
67545;BME280;54380;47.770;11.150;2024-02-16T00:31:33;94737.88;;;5.71;58.45
67545;BME280;54380;47.770;11.150;2024-02-16T00:33:59;94731.97;;;5.76;58.33
67545;BME280;54380;47.770;11.150;2024-02-16T00:36:28;94728.91;;;5.79;58.07
67545;BME280;54380;47.770;11.150;2024-02-16T00:38:57;94726.53;;;5.77;57.80
67545;BME280;54380;47.770;11.150;2024-02-16T00:41:24;94726.97;;;5.74;57.67
67545;BME280;54380;47.770;11.150;2024-02-16T00:43:51;94726.41;;;5.72;57.73
67545;BME280;54380;47.770;11.150;2024-02-16T00:46:19;94733.47;;;5.71;57.87
67545;BME280;54380;47.770;11.150;2024-02-16T00:48:45;94733.69;;;5.70;57.71
67545;BME280;54380;47.770;11.150;2024-02-16T00:51:13;94730.72;;;5.66;57.60
67545;BME280;54380;47.770;11.150;2024-02-16T00:53:41;94727.72;;;5.63;57.78
67545;BME280;54380;47.770;11.150;2024-02-16T00:56:08;94727.13;;;5.61;57.83
67545;BME280;54380;47.770;11.150;2024-02-16T00:58:36;94728.97;;;5.60;58.10
67545;BME280;54380;47.770;11.150;2024-02-16T01:01:03;94715.09;;;5.60;58.19
67545;BME280;54380;47.770;11.150;2024-02-16T01:03:30;94717.34;;;5.56;58.06
67545;BME280;54380;47.770;11.150;2024-02-16T01:05:57;94716.50;;;5.44;58.16
67545;BME280;54380;47.770;11.150;2024-02-16T01:08:24;94717.91;;;5.28;57.33
67545;BME280;54380;47.770;11.150;2024-02-16T01:10:52;94720.50;;;5.16;58.16
67545;BME280;54380;47.770;11.150;2024-02-16T01:13:19;94723.53;;;5.13;58.10
67545;BME280;54380;47.770;11.150;2024-02-16T01:15:46;94718.28;;;5.13;58.79
67545;BME280;54380;47.770;11.150;2024-02-16T01:18:13;94718.66;;;5.17;59.13
67545;BME280;54380;47.770;11.150;2024-02-16T01:20:39;94717.78;;;5.23;59.02
67545;BME280;54380;47.770;11.150;2024-02-16T01:23:07;94709.88;;;5.30;59.21
67545;BME280;54380;47.770;11.150;2024-02-16T01:25:33;94716.81;;;5.36;58.36
67545;BME280;54380;47.770;11.150;2024-02-16T01:28:01;94712.81;;;5.33;58.62
67545;BME280;54380;47.770;11.150;2024-02-16T01:30:28;94713.84;;;5.32;58.63
67545;BME280;54380;47.770;11.150;2024-02-16T01:32:55;94720.53;;;5.28;58.90
67545;BME280;54380;47.770;11.150;2024-02-16T01:35:22;94722.81;;;5.24;58.66
67545;BME280;54380;47.770;11.150;2024-02-16T01:37:48;94719.16;;;5.25;59.25
67545;BME280;54380;47.770;11.150;2024-02-16T01:40:16;94716.47;;;5.32;59.24
67545;BME280;54380;47.770;11.150;2024-02-16T01:42:44;94716.59;;;5.37;58.74
67545;BME280;54380;47.770;11.150;2024-02-16T01:45:13;94708.97;;;5.36;58.07
67545;BME280;54380;47.770;11.150;2024-02-16T01:47:41;94704.63;;;5.30;58.63
67545;BME280;54380;47.770;11.150;2024-02-16T01:50:10;94699.31;;;5.18;58.70
67545;BME280;54380;47.770;11.150;2024-02-16T01:52:37;94704.97;;;5.03;58.80
67545;BME280;54380;47.770;11.150;2024-02-16T01:55:05;94709.03;;;4.99;58.92
67545;BME280;54380;47.770;11.150;2024-02-16T01:57:35;94711.84;;;4.97;58.87
67545;BME280;54380;47.770;11.150;2024-02-16T02:00:03;94710.84;;;4.98;59.38
67545;BME280;54380;47.770;11.150;2024-02-16T02:02:31;94705.31;;;5.06;59.23
67545;BME280;54380;47.770;11.150;2024-02-16T02:04:58;94697.00;;;5.10;59.70
67545;BME280;54380;47.770;11.150;2024-02-16T02:07:26;94701.50;;;5.21;59.73
67545;BME280;54380;47.770;11.150;2024-02-16T02:09:54;94706.78;;;5.33;59.54
67545;BME280;54380;47.770;11.150;2024-02-16T02:12:21;94699.28;;;5.36;58.91
67545;BME280;54380;47.770;11.150;2024-02-16T02:14:49;94699.53;;;5.35;59.02
67545;BME280;54380;47.770;11.150;2024-02-16T02:17:17;94699.53;;;5.35;58.60
67545;BME280;54380;47.770;11.150;2024-02-16T02:19:45;94699.09;;;5.38;58.97
67545;BME280;54380;47.770;11.150;2024-02-16T02:22:15;94704.44;;;5.43;59.01
67545;BME280;54380;47.770;11.150;2024-02-16T02:24:42;94702.50;;;5.38;59.02
67545;BME280;54380;47.770;11.150;2024-02-16T02:27:10;94700.63;;;5.27;59.09
67545;BME280;54380;47.770;11.150;2024-02-16T02:29:37;94699.91;;;5.20;59.23
67545;BME280;54380;47.770;11.150;2024-02-16T02:32:04;94696.94;;;5.16;59.60
67545;BME280;54380;47.770;11.150;2024-02-16T02:34:31;94693.44;;;5.22;59.46
67545;BME280;54380;47.770;11.150;2024-02-16T02:36:59;94685.72;;;5.27;59.67
67545;BME280;54380;47.770;11.150;2024-02-16T02:39:27;94690.66;;;5.36;59.78
67545;BME280;54380;47.770;11.150;2024-02-16T02:41:54;94686.78;;;5.38;59.16
67545;BME280;54380;47.770;11.150;2024-02-16T02:44:21;94673.50;;;5.40;58.91
67545;BME280;54380;47.770;11.150;2024-02-16T02:46:48;94683.50;;;5.43;58.99
67545;BME280;54380;47.770;11.150;2024-02-16T02:49:15;94677.44;;;5.42;58.95
67545;BME280;54380;47.770;11.150;2024-02-16T02:51:41;94685.53;;;5.41;59.50
67545;BME280;54380;47.770;11.150;2024-02-16T02:54:08;94693.25;;;5.36;58.99
67545;BME280;54380;47.770;11.150;2024-02-16T02:56:36;94697.25;;;5.38;59.43
67545;BME280;54380;47.770;11.150;2024-02-16T02:59:03;94704.44;;;5.43;59.28
67545;BME280;54380;47.770;11.150;2024-02-16T03:01:32;94698.19;;;5.44;59.44
67545;BME280;54380;47.770;11.150;2024-02-16T03:04:00;94710.03;;;5.46;59.33
67545;BME280;54380;47.770;11.150;2024-02-16T03:06:27;94706.75;;;5.51;59.44
67545;BME280;54380;47.770;11.150;2024-02-16T03:08:54;94711.44;;;5.61;59.06
67545;BME280;54380;47.770;11.150;2024-02-16T03:11:21;94713.03;;;5.62;59.32
67545;BME280;54380;47.770;11.150;2024-02-16T03:13:49;94711.00;;;5.64;59.57
67545;BME280;54380;47.770;11.150;2024-02-16T03:16:16;94704.09;;;5.69;59.21
67545;BME280;54380;47.770;11.150;2024-02-16T03:18:43;94714.44;;;5.76;59.13
67545;BME280;54380;47.770;11.150;2024-02-16T03:21:13;94709.56;;;5.80;58.54
67545;BME280;54380;47.770;11.150;2024-02-16T03:23:42;94706.38;;;5.78;58.88
67545;BME280;54380;47.770;11.150;2024-02-16T03:26:13;94722.31;;;5.76;58.97
67545;BME280;54380;47.770;11.150;2024-02-16T03:28:41;94718.53;;;5.72;58.73
67545;BME280;54380;47.770;11.150;2024-02-16T03:31:15;94723.88;;;5.65;59.05
67545;BME280;54380;47.770;11.150;2024-02-16T03:33:43;94729.06;;;5.54;59.05
67545;BME280;54380;47.770;11.150;2024-02-16T03:36:10;94726.91;;;5.50;59.38
67545;BME280;54380;47.770;11.150;2024-02-16T03:38:41;94724.75;;;5.59;59.40
67545;BME280;54380;47.770;11.150;2024-02-16T03:41:08;94718.28;;;5.62;59.46
67545;BME280;54380;47.770;11.150;2024-02-16T03:43:38;94723.88;;;5.65;59.39
67545;BME280;54380;47.770;11.150;2024-02-16T03:46:04;94728.22;;;5.71;59.02
67545;BME280;54380;47.770;11.150;2024-02-16T03:48:33;94728.22;;;5.71;59.12
67545;BME280;54380;47.770;11.150;2024-02-16T03:51:00;94724.56;;;5.72;58.76
67545;BME280;54380;47.770;11.150;2024-02-16T03:53:27;94732.56;;;5.78;59.46
67545;BME280;54380;47.770;11.150;2024-02-16T03:55:54;94732.69;;;5.83;59.13
67545;BME280;54380;47.770;11.150;2024-02-16T03:58:21;94730.66;;;5.85;59.41
67545;BME280;54380;47.770;11.150;2024-02-16T04:00:48;94729.63;;;5.86;58.88
67545;BME280;54380;47.770;11.150;2024-02-16T04:03:19;94736.69;;;5.85;58.81
67545;BME280;54380;47.770;11.150;2024-02-16T04:05:47;94741.69;;;5.87;59.21
67545;BME280;54380;47.770;11.150;2024-02-16T04:08:14;94733.81;;;5.87;58.82
67545;BME280;54380;47.770;11.150;2024-02-16T04:10:41;94739.88;;;5.87;58.56
67545;BME280;54380;47.770;11.150;2024-02-16T04:13:08;94740.03;;;5.92;59.17
67545;BME280;54380;47.770;11.150;2024-02-16T04:15:35;94738.56;;;5.97;58.86
67545;BME280;54380;47.770;11.150;2024-02-16T04:18:02;94741.97;;;5.97;59.56
67545;BME280;54380;47.770;11.150;2024-02-16T04:20:29;94747.88;;;5.92;58.87
67545;BME280;54380;47.770;11.150;2024-02-16T04:22:57;94749.13;;;5.90;59.17
67545;BME280;54380;47.770;11.150;2024-02-16T04:25:24;94755.81;;;5.86;59.40
67545;BME280;54380;47.770;11.150;2024-02-16T04:27:53;94757.41;;;5.87;59.38
67545;BME280;54380;47.770;11.150;2024-02-16T04:30:20;94755.22;;;5.84;59.47
67545;BME280;54380;47.770;11.150;2024-02-16T04:32:48;94757.72;;;5.79;59.47
67545;BME280;54380;47.770;11.150;2024-02-16T04:35:15;94752.72;;;5.77;59.61
67545;BME280;54380;47.770;11.150;2024-02-16T04:37:43;94756.72;;;5.80;60.08
67545;BME280;54380;47.770;11.150;2024-02-16T04:40:12;94753.84;;;5.81;59.88
67545;BME280;54380;47.770;11.150;2024-02-16T04:42:39;94754.66;;;5.82;59.55
67545;BME280;54380;47.770;11.150;2024-02-16T04:45:11;94761.25;;;5.84;60.20
67545;BME280;54380;47.770;11.150;2024-02-16T04:47:38;94759.47;;;5.85;60.08
67545;BME280;54380;47.770;11.150;2024-02-16T04:50:06;94763.47;;;5.87;60.13
67545;BME280;54380;47.770;11.150;2024-02-16T04:52:37;94763.81;;;5.91;60.11
67545;BME280;54380;47.770;11.150;2024-02-16T04:55:05;94760.75;;;5.94;60.29
67545;BME280;54380;47.770;11.150;2024-02-16T04:57:34;94758.94;;;5.94;59.79
67545;BME280;54380;47.770;11.150;2024-02-16T05:00:02;94755.75;;;5.92;59.72
67545;BME280;54380;47.770;11.150;2024-02-16T05:02:29;94750.88;;;5.96;59.48
67545;BME280;54380;47.770;11.150;2024-02-16T05:04:56;94757.69;;;5.97;60.05
67545;BME280;54380;47.770;11.150;2024-02-16T05:07:26;94756.91;;;5.97;60.22
67545;BME280;54380;47.770;11.150;2024-02-16T05:09:53;94756.91;;;5.97;59.92
67545;BME280;54380;47.770;11.150;2024-02-16T05:12:24;94754.28;;;5.97;59.67
67545;BME280;54380;47.770;11.150;2024-02-16T05:14:53;94757.34;;;5.93;60.39
67545;BME280;54380;47.770;11.150;2024-02-16T05:17:20;94754.28;;;5.97;60.18
67545;BME280;54380;47.770;11.150;2024-02-16T05:19:49;94753.03;;;5.99;59.80
67545;BME280;54380;47.770;11.150;2024-02-16T05:22:15;94741.31;;;6.02;60.31
67545;BME280;54380;47.770;11.150;2024-02-16T05:24:44;94743.47;;;6.05;59.85
67545;BME280;54380;47.770;11.150;2024-02-16T05:27:11;94746.88;;;6.05;59.80
67545;BME280;54380;47.770;11.150;2024-02-16T05:29:38;94746.53;;;6.02;60.10
67545;BME280;54380;47.770;11.150;2024-02-16T05:32:06;94744.25;;;6.05;59.89
67545;BME280;54380;47.770;11.150;2024-02-16T05:34:33;94744.84;;;6.07;59.80
67545;BME280;54380;47.770;11.150;2024-02-16T05:37:06;94747.72;;;6.06;60.21
67545;BME280;54380;47.770;11.150;2024-02-16T05:39:36;94748.50;;;6.06;60.04
67545;BME280;54380;47.770;11.150;2024-02-16T05:42:10;94747.91;;;6.04;60.09
67545;BME280;54380;47.770;11.150;2024-02-16T05:44:37;94769.34;;;6.01;60.24
67545;BME280;54380;47.770;11.150;2024-02-16T05:47:04;94767.28;;;6.03;59.88
67545;BME280;54380;47.770;11.150;2024-02-16T05:49:32;94767.63;;;6.07;60.16
67545;BME280;54380;47.770;11.150;2024-02-16T05:52:00;94768.81;;;6.11;59.90
67545;BME280;54380;47.770;11.150;2024-02-16T05:54:44;94759.44;;;6.15;59.70
67545;BME280;54380;47.770;11.150;2024-02-16T05:57:11;94759.22;;;6.17;59.54
67545;BME280;54380;47.770;11.150;2024-02-16T05:59:39;94762.66;;;6.17;59.75
67545;BME280;54380;47.770;11.150;2024-02-16T06:02:06;94764.22;;;6.18;59.67
67545;BME280;54380;47.770;11.150;2024-02-16T06:04:35;94761.75;;;6.23;59.51
67545;BME280;54380;47.770;11.150;2024-02-16T06:07:02;94770.97;;;6.26;59.37
67545;BME280;54380;47.770;11.150;2024-02-16T06:09:31;94764.94;;;6.25;59.25
67545;BME280;54380;47.770;11.150;2024-02-16T06:12:01;94777.47;;;6.23;59.54
67545;BME280;54380;47.770;11.150;2024-02-16T06:14:30;94787.16;;;6.23;59.65
67545;BME280;54380;47.770;11.150;2024-02-16T06:16:57;94796.59;;;6.24;59.79
67545;BME280;54380;47.770;11.150;2024-02-16T06:19:29;94798.22;;;6.25;59.54
67545;BME280;54380;47.770;11.150;2024-02-16T06:21:58;94795.34;;;6.26;59.60
67545;BME280;54380;47.770;11.150;2024-02-16T06:24:25;94803.81;;;6.28;59.50
67545;BME280;54380;47.770;11.150;2024-02-16T06:26:52;94796.53;;;6.30;59.07
67545;BME280;54380;47.770;11.150;2024-02-16T06:29:23;94805.75;;;6.33;59.14
67545;BME280;54380;47.770;11.150;2024-02-16T06:31:50;94813.16;;;6.36;59.16
67545;BME280;54380;47.770;11.150;2024-02-16T06:34:18;94815.56;;;6.37;58.97
67545;BME280;54380;47.770;11.150;2024-02-16T06:36:45;94816.38;;;6.38;59.15
67545;BME280;54380;47.770;11.150;2024-02-16T06:39:15;94817.38;;;6.37;59.13
67545;BME280;54380;47.770;11.150;2024-02-16T06:41:44;94820.44;;;6.34;59.18
67545;BME280;54380;47.770;11.150;2024-02-16T06:44:11;94827.41;;;6.28;59.33
67545;BME280;54380;47.770;11.150;2024-02-16T06:46:37;94826.81;;;6.26;58.95
67545;BME280;54380;47.770;11.150;2024-02-16T06:49:04;94838.34;;;6.25;59.32
67545;BME280;54380;47.770;11.150;2024-02-16T06:51:31;94837.53;;;6.25;58.90
67545;BME280;54380;47.770;11.150;2024-02-16T06:53:58;94844.81;;;6.23;59.31
67545;BME280;54380;47.770;11.150;2024-02-16T06:56:26;94846.28;;;6.19;59.05
67545;BME280;54380;47.770;11.150;2024-02-16T06:58:53;94852.75;;;6.16;59.20
67545;BME280;54380;47.770;11.150;2024-02-16T07:01:20;94858.13;;;6.21;59.48
67545;BME280;54380;47.770;11.150;2024-02-16T07:03:47;94850.63;;;6.25;59.06
67545;BME280;54380;47.770;11.150;2024-02-16T07:06:14;94854.63;;;6.27;58.66
67545;BME280;54380;47.770;11.150;2024-02-16T07:08:42;94864.88;;;6.29;58.74
67545;BME280;54380;47.770;11.150;2024-02-16T07:11:09;94868.66;;;6.33;59.09
67545;BME280;54380;47.770;11.150;2024-02-16T07:13:41;94870.03;;;6.35;58.63
67545;BME280;54380;47.770;11.150;2024-02-16T07:16:11;94872.88;;;6.34;58.83
67545;BME280;54380;47.770;11.150;2024-02-16T07:18:38;94877.13;;;6.35;58.87
67545;BME280;54380;47.770;11.150;2024-02-16T07:21:04;94870.84;;;6.36;59.37
67545;BME280;54380;47.770;11.150;2024-02-16T07:23:31;94869.72;;;6.32;59.61
67545;BME280;54380;47.770;11.150;2024-02-16T07:25:58;94869.56;;;6.27;59.69
67545;BME280;54380;47.770;11.150;2024-02-16T07:28:27;94869.34;;;6.28;59.65
67545;BME280;54380;47.770;11.150;2024-02-16T07:30:55;94868.22;;;6.36;60.15
67545;BME280;54380;47.770;11.150;2024-02-16T07:33:22;94869.06;;;6.48;60.17
67545;BME280;54380;47.770;11.150;2024-02-16T07:35:51;94871.47;;;6.62;60.36
67545;BME280;54380;47.770;11.150;2024-02-16T07:38:18;94868.88;;;6.73;60.26
67545;BME280;54380;47.770;11.150;2024-02-16T07:40:45;94880.63;;;6.82;60.60
67545;BME280;54380;47.770;11.150;2024-02-16T07:43:12;94873.44;;;6.90;60.71
67545;BME280;54380;47.770;11.150;2024-02-16T07:45:40;94873.56;;;6.95;60.72
67545;BME280;54380;47.770;11.150;2024-02-16T07:48:08;94877.69;;;7.02;60.72
67545;BME280;54380;47.770;11.150;2024-02-16T07:50:35;94877.56;;;7.09;60.71
67545;BME280;54380;47.770;11.150;2024-02-16T07:53:02;94875.53;;;7.11;61.19
67545;BME280;54380;47.770;11.150;2024-02-16T07:55:29;94886.94;;;7.17;61.05
67545;BME280;54380;47.770;11.150;2024-02-16T07:57:56;94876.31;;;7.23;60.99
67545;BME280;54380;47.770;11.150;2024-02-16T08:00:22;94877.22;;;7.29;60.98
67545;BME280;54380;47.770;11.150;2024-02-16T08:02:49;94874.47;;;7.36;61.02
67545;BME280;54380;47.770;11.150;2024-02-16T08:05:18;94875.38;;;7.41;61.01
67545;BME280;54380;47.770;11.150;2024-02-16T08:07:46;94883.16;;;7.48;61.06
67545;BME280;54380;47.770;11.150;2024-02-16T08:10:14;94882.00;;;7.56;60.67
67545;BME280;54380;47.770;11.150;2024-02-16T08:12:40;94880.38;;;7.66;61.05
67545;BME280;54380;47.770;11.150;2024-02-16T08:15:08;94876.94;;;7.78;60.92
67545;BME280;54380;47.770;11.150;2024-02-16T08:17:37;94867.41;;;7.88;60.57
67545;BME280;54380;47.770;11.150;2024-02-16T08:20:05;94875.72;;;7.97;60.44
67545;BME280;54380;47.770;11.150;2024-02-16T08:22:37;94868.03;;;8.07;59.98
67545;BME280;54380;47.770;11.150;2024-02-16T08:25:05;94869.38;;;8.22;60.27
67545;BME280;54380;47.770;11.150;2024-02-16T08:27:32;94867.25;;;8.35;60.00
67545;BME280;54380;47.770;11.150;2024-02-16T08:29:59;94871.06;;;8.56;60.23
67545;BME280;54380;47.770;11.150;2024-02-16T08:32:28;94869.31;;;8.79;60.54
67545;BME280;54380;47.770;11.150;2024-02-16T08:34:56;94871.38;;;9.11;60.17
67545;BME280;54380;47.770;11.150;2024-02-16T08:37:25;94871.66;;;9.48;60.44
67545;BME280;54380;47.770;11.150;2024-02-16T08:39:53;94875.84;;;9.88;60.12
67545;BME280;54380;47.770;11.150;2024-02-16T08:42:20;94877.06;;;10.24;60.16
67545;BME280;54380;47.770;11.150;2024-02-16T08:44:49;94866.91;;;10.65;59.29
67545;BME280;54380;47.770;11.150;2024-02-16T08:47:16;94865.44;;;11.12;58.86
67545;BME280;54380;47.770;11.150;2024-02-16T08:49:43;94868.28;;;11.48;58.67
67545;BME280;54380;47.770;11.150;2024-02-16T08:52:10;94862.72;;;11.92;57.67
67545;BME280;54380;47.770;11.150;2024-02-16T08:54:37;94867.88;;;12.29;57.15
67545;BME280;54380;47.770;11.150;2024-02-16T08:57:06;94861.06;;;12.69;56.29
67545;BME280;54380;47.770;11.150;2024-02-16T08:59:33;94867.19;;;13.15;53.56
67545;BME280;54380;47.770;11.150;2024-02-16T09:02:01;94865.81;;;13.59;51.79
67545;BME280;54380;47.770;11.150;2024-02-16T09:04:28;94863.91;;;13.85;50.74
67545;BME280;54380;47.770;11.150;2024-02-16T09:06:55;94866.16;;;14.12;50.25
67545;BME280;54380;47.770;11.150;2024-02-16T09:09:21;94859.91;;;14.42;48.90
67545;BME280;54380;47.770;11.150;2024-02-16T09:11:49;94855.47;;;14.77;48.41
67545;BME280;54380;47.770;11.150;2024-02-16T09:14:18;94858.09;;;15.17;46.75
67545;BME280;54380;47.770;11.150;2024-02-16T09:16:45;94857.47;;;15.54;45.61
67545;BME280;54380;47.770;11.150;2024-02-16T09:19:14;94856.38;;;15.84;44.83
67545;BME280;54380;47.770;11.150;2024-02-16T09:21:41;94852.56;;;16.14;43.30
67545;BME280;54380;47.770;11.150;2024-02-16T09:24:08;94853.38;;;16.34;42.68
67545;BME280;54380;47.770;11.150;2024-02-16T09:26:37;94854.03;;;16.63;41.09
67545;BME280;54380;47.770;11.150;2024-02-16T09:29:04;94853.84;;;16.79;41.09
67545;BME280;54380;47.770;11.150;2024-02-16T09:31:33;94850.94;;;16.94;40.97
67545;BME280;54380;47.770;11.150;2024-02-16T09:34:00;94855.41;;;16.99;39.54
67545;BME280;54380;47.770;11.150;2024-02-16T09:36:26;94850.81;;;16.85;40.30
67545;BME280;54380;47.770;11.150;2024-02-16T09:38:53;94850.94;;;16.94;40.63
67545;BME280;54380;47.770;11.150;2024-02-16T09:41:20;94853.66;;;17.08;41.28
67545;BME280;54380;47.770;11.150;2024-02-16T09:43:50;94853.53;;;17.32;40.72
67545;BME280;54380;47.770;11.150;2024-02-16T09:46:21;94853.28;;;17.61;39.62
67545;BME280;54380;47.770;11.150;2024-02-16T09:48:50;94855.59;;;17.82;39.33
67545;BME280;54380;47.770;11.150;2024-02-16T09:51:19;94853.41;;;18.11;38.46
67545;BME280;54380;47.770;11.150;2024-02-16T09:53:50;94856.56;;;18.41;38.08
67545;BME280;54380;47.770;11.150;2024-02-16T09:56:25;94864.50;;;18.69;38.21
67545;BME280;54380;47.770;11.150;2024-02-16T09:58:51;94861.28;;;18.94;37.49
67545;BME280;54380;47.770;11.150;2024-02-16T10:01:19;94866.78;;;19.12;37.78
67545;BME280;54380;47.770;11.150;2024-02-16T10:03:51;94857.16;;;19.33;36.56
67545;BME280;54380;47.770;11.150;2024-02-16T10:06:18;94858.63;;;19.48;36.44
67545;BME280;54380;47.770;11.150;2024-02-16T10:08:48;94859.41;;;19.71;34.68
67545;BME280;54380;47.770;11.150;2024-02-16T10:11:15;94850.97;;;19.86;34.60
67545;BME280;54380;47.770;11.150;2024-02-16T10:13:42;94852.28;;;20.06;35.00
67545;BME280;54380;47.770;11.150;2024-02-16T10:16:09;94855.88;;;20.33;33.51
67545;BME280;54380;47.770;11.150;2024-02-16T10:18:38;94855.38;;;20.39;34.09
67545;BME280;54380;47.770;11.150;2024-02-16T10:21:07;94845.63;;;20.52;33.49
67545;BME280;54380;47.770;11.150;2024-02-16T10:23:34;94849.16;;;20.70;33.03
67545;BME280;54380;47.770;11.150;2024-02-16T10:26:09;94852.78;;;20.92;33.07
67545;BME280;54380;47.770;11.150;2024-02-16T10:28:36;94851.66;;;21.10;33.01
67545;BME280;54380;47.770;11.150;2024-02-16T10:31:03;94854.34;;;21.19;34.46
67545;BME280;54380;47.770;11.150;2024-02-16T10:33:31;94859.38;;;21.29;35.39
67545;BME280;54380;47.770;11.150;2024-02-16T10:35:58;94855.09;;;21.37;36.07
67545;BME280;54380;47.770;11.150;2024-02-16T10:38:28;94854.97;;;21.42;36.34
67545;BME280;54380;47.770;11.150;2024-02-16T10:40:56;94845.97;;;21.46;35.94
67545;BME280;54380;47.770;11.150;2024-02-16T10:43:22;94845.63;;;21.57;35.69
67545;BME280;54380;47.770;11.150;2024-02-16T10:45:49;94842.91;;;21.65;35.35
67545;BME280;54380;47.770;11.150;2024-02-16T10:48:19;94851.09;;;21.78;35.78
67545;BME280;54380;47.770;11.150;2024-02-16T10:50:46;94849.59;;;21.89;35.31
67545;BME280;54380;47.770;11.150;2024-02-16T10:53:15;94843.44;;;21.88;34.71
67545;BME280;54380;47.770;11.150;2024-02-16T10:55:44;94845.09;;;21.63;35.02
67545;BME280;54380;47.770;11.150;2024-02-16T10:58:12;94839.97;;;21.41;35.86
67545;BME280;54380;47.770;11.150;2024-02-16T11:00:47;94838.72;;;21.38;35.98
67545;BME280;54380;47.770;11.150;2024-02-16T11:03:16;94839.00;;;21.37;36.01
67545;BME280;54380;47.770;11.150;2024-02-16T11:05:43;94833.00;;;21.40;36.11
67545;BME280;54380;47.770;11.150;2024-02-16T11:08:12;94839.47;;;21.47;35.94
67545;BME280;54380;47.770;11.150;2024-02-16T11:10:39;94833.78;;;21.49;35.55
67545;BME280;54380;47.770;11.150;2024-02-16T11:13:07;94827.78;;;21.52;35.40
67545;BME280;54380;47.770;11.150;2024-02-16T11:15:34;94828.25;;;21.45;35.61
67545;BME280;54380;47.770;11.150;2024-02-16T11:18:02;94824.47;;;21.29;35.08
67545;BME280;54380;47.770;11.150;2024-02-16T11:20:35;94831.75;;;21.11;35.89
67545;BME280;54380;47.770;11.150;2024-02-16T11:23:06;94821.19;;;21.23;36.36
67545;BME280;54380;47.770;11.150;2024-02-16T11:25:33;94824.63;;;21.50;36.32
67545;BME280;54380;47.770;11.150;2024-02-16T11:28:01;94817.34;;;21.59;36.17
67545;BME280;54380;47.770;11.150;2024-02-16T11:30:29;94822.78;;;21.72;35.97
67545;BME280;54380;47.770;11.150;2024-02-16T11:32:58;94813.91;;;21.80;35.77
67545;BME280;54380;47.770;11.150;2024-02-16T11:35:25;94814.03;;;21.92;35.20
67545;BME280;54380;47.770;11.150;2024-02-16T11:37:52;94806.16;;;21.87;34.54
67545;BME280;54380;47.770;11.150;2024-02-16T11:40:18;94817.91;;;21.74;35.11
67545;BME280;54380;47.770;11.150;2024-02-16T11:42:45;94812.69;;;21.68;35.03
67545;BME280;54380;47.770;11.150;2024-02-16T11:45:13;94816.94;;;21.78;35.22
67545;BME280;54380;47.770;11.150;2024-02-16T11:47:41;94820.69;;;21.86;34.65
67545;BME280;54380;47.770;11.150;2024-02-16T11:50:08;94812.34;;;21.79;33.59
67545;BME280;54380;47.770;11.150;2024-02-16T11:52:38;94818.06;;;21.68;33.81
67545;BME280;54380;47.770;11.150;2024-02-16T11:55:07;94806.41;;;21.64;34.06
67545;BME280;54380;47.770;11.150;2024-02-16T11:57:34;94810.06;;;21.60;33.90
67545;BME280;54380;47.770;11.150;2024-02-16T12:00:01;94810.78;;;21.69;34.12
67545;BME280;54380;47.770;11.150;2024-02-16T12:02:34;94822.66;;;21.68;34.29
67545;BME280;54380;47.770;11.150;2024-02-16T12:05:02;94819.03;;;21.64;33.53
67545;BME280;54380;47.770;11.150;2024-02-16T12:07:30;94815.16;;;21.44;33.80
67545;BME280;54380;47.770;11.150;2024-02-16T12:09:57;94820.19;;;21.37;34.32
67545;BME280;54380;47.770;11.150;2024-02-16T12:12:24;94818.31;;;21.46;34.10
67545;BME280;54380;47.770;11.150;2024-02-16T12:14:50;94817.50;;;21.45;34.56
67545;BME280;54380;47.770;11.150;2024-02-16T12:17:17;94824.22;;;21.69;34.65
67545;BME280;54380;47.770;11.150;2024-02-16T12:19:43;94814.84;;;21.84;34.36
67545;BME280;54380;47.770;11.150;2024-02-16T12:22:17;94821.91;;;21.97;34.23
67545;BME280;54380;47.770;11.150;2024-02-16T12:24:44;94819.72;;;21.90;33.83
67545;BME280;54380;47.770;11.150;2024-02-16T12:27:11;94822.16;;;21.75;34.44
67545;BME280;54380;47.770;11.150;2024-02-16T12:29:38;94813.47;;;21.69;34.77
67545;BME280;54380;47.770;11.150;2024-02-16T12:32:05;94828.94;;;21.72;34.89
67545;BME280;54380;47.770;11.150;2024-02-16T12:34:31;94820.00;;;21.59;34.20
67545;BME280;54380;47.770;11.150;2024-02-16T12:36:58;94830.31;;;21.40;34.90
67545;BME280;54380;47.770;11.150;2024-02-16T12:39:26;94825.28;;;21.21;34.20
67545;BME280;54380;47.770;11.150;2024-02-16T12:41:53;94831.78;;;20.85;34.77
67545;BME280;54380;47.770;11.150;2024-02-16T12:44:19;94833.69;;;20.67;35.35
67545;BME280;54380;47.770;11.150;2024-02-16T12:46:46;94830.84;;;20.55;35.74
67545;BME280;54380;47.770;11.150;2024-02-16T12:49:13;94829.69;;;20.47;35.68
67545;BME280;54380;47.770;11.150;2024-02-16T12:51:39;94829.22;;;20.45;35.90
67545;BME280;54380;47.770;11.150;2024-02-16T12:54:06;94840.91;;;20.41;35.62
67545;BME280;54380;47.770;11.150;2024-02-16T12:56:35;94838.47;;;20.22;35.21
67545;BME280;54380;47.770;11.150;2024-02-16T12:59:01;94838.91;;;20.06;35.51
67545;BME280;54380;47.770;11.150;2024-02-16T13:01:28;94846.91;;;19.98;36.07